Flight Track Log - Related Links

Times and Time Zones

All times are in EDT time to prevent confusion due to time zone crossing. See the AAY807 flight status page for this flight to view local times or setup timezone preferences in your user account.

Time Position Orientation Groundspeed Altitude Reporting Facility
EDT Latitude Longitude Course Direction KTS MPH feet Rate Location/Type
Sat 06:18:51 PM 37.1217 -93.3292 126° Southeast 274 315 5,500  Level Kansas City Center
Sat 06:19:12 PM 37.1064 -93.3111 137° Southeast 262 302 6,100 2,178 Climbing Kansas City Center
Sat 06:21:17 PM 37.0008 -93.1489 129° Southeast 307 353 10,800 1,903 Climbing Kansas City Center
Sat 06:22:18 PM 36.9703 -93.0336 108° East 341 392 12,000 1,033 Climbing Kansas City Center
Sat 06:23:00 PM 36.9970 -92.7971 126° Southeast  Level FlightAware Approximate
Sat 06:23:19 PM 36.9364 -92.9100 109° East 363 418 12,900  Level Kansas City Center
Sat 06:24:19 PM 36.8950 -92.7581 109° East 379 436 14,000 1,016 Climbing Kansas City Center
Sat 06:25:23 PM 36.8500 -92.6300 114° Southeast 407 468 15,000 469 Climbing Kansas City Center
Sat 06:26:27 PM 36.7800 -92.5222 129° Southeast 406 467 15,000  Level Memphis Center
Sat 06:27:28 PM 36.7106 -92.4131 128° Southeast 404 465 15,000 439 Level Memphis Center
Sat 06:28:30 PM 36.6403 -92.3039 129° Southeast 404 465 15,900 1,366 Climbing Memphis Center
Sat 06:29:31 PM 36.5533 -92.1708 129° Southeast 410 472 17,800 1,805 Climbing Memphis Center
Sat 06:30:33 PM 36.4806 -92.0592 129° Southeast 418 481 19,600 1,756 Climbing Memphis Center
Sat 06:31:34 PM 36.4039 -91.9433 129° Southeast 427 491 21,400 1,561 Climbing Memphis Center
Sat 06:32:36 PM 36.3264 -91.8256 129° Southeast 434 499 22,800 1,366 Climbing Memphis Center
Sat 06:33:37 PM 36.2481 -91.7033 128° Southeast 443 510 24,200 1,317 Climbing Memphis Center
Sat 06:34:39 PM 36.1664 -91.5844 130° Southeast 447 514 25,500 1,220 Climbing Memphis Center
Sat 06:35:40 PM 36.0789 -91.4642 132° Southeast 456 525 26,700 1,317 Climbing Memphis Center
Sat 06:36:42 PM 35.9747 -91.3156 131° Southeast 469 540 28,200 1,171 Climbing Memphis Center
Sat 06:37:43 PM 35.8878 -91.1911 131° Southeast 474 545 29,100 927 Climbing Memphis Center
Sat 06:38:45 PM 35.7981 -91.0653 131° Southeast 480 552 30,100 878 Climbing Memphis Center
Sat 06:39:46 PM 35.7069 -90.9369 131° Southeast 492 566 30,900 1,024 Climbing Memphis Center
Sat 06:40:48 PM 35.6083 -90.8011 132° Southeast 497 572 32,200 1,122 Climbing Memphis Center
Sat 06:41:49 PM 35.5175 -90.6733 131° Southeast 498 573 33,200 1,033 Climbing Memphis Center
Sat 06:42:50 PM 35.4272 -90.5481 131° Southeast 497 572 34,300 976 Climbing Memphis Center
Sat 06:43:52 PM 35.3347 -90.4217 132° Southeast 496 571 35,200 1,122 Climbing Memphis Center
Sat 06:44:53 PM 35.2447 -90.2969 131° Southeast 496 571 36,600 878 Climbing Memphis Center
Sat 06:45:55 PM 35.1558 -90.1753 132° Southeast 486 559 37,000 195 Climbing Memphis Center
Sat 06:46:56 PM 35.0661 -90.0528 132° Southeast 485 558 37,000  Level Memphis Center
Sat 06:47:58 PM 34.9608 -89.9072 131° Southeast 483 556 37,000  Level Memphis Center
Sat 06:48:59 PM 34.8764 -89.7933 132° Southeast 484 557 37,000  Level Memphis Center
Sat 06:50:01 PM 34.7867 -89.6681 131° Southeast 487 560 37,000  Level Memphis Center
Sat 06:51:02 PM 34.6986 -89.5486 132° Southeast 488 562 37,000  Level Memphis Center
Sat 06:52:04 PM 34.5922 -89.4047 132° Southeast 481 554 37,000  Level Memphis Center
Sat 06:53:05 PM 34.5033 -89.2844 132° Southeast 481 554 37,000  Level Memphis Center
Sat 06:54:07 PM 34.4139 -89.1633 132° Southeast 481 554 37,000  Level Memphis Center
Sat 06:55:08 PM 34.3250 -89.0439 132° Southeast 481 554 37,000  Level Memphis Center
Sat 06:56:10 PM 34.2375 -88.9233 131° Southeast 481 554 37,000  Level Memphis Center
Sat 06:57:11 PM 34.1419 -88.7967 132° Southeast 480 552 37,000  Level Memphis Center
Sat 06:58:13 PM 34.0542 -88.6800 132° Southeast 477 549 37,000  Level Memphis Center
Sat 06:59:14 PM 33.9658 -88.5622 132° Southeast 477 549 37,000  Level Memphis Center
Sat 07:00:16 PM 33.8775 -88.4458 132° Southeast 477 549 37,000  Level Memphis Center
Sat 07:01:17 PM 33.7900 -88.3289 132° Southeast 475 547 37,000  Level Memphis Center
Sat 07:02:18 PM 33.6831 -88.1897 133° Southeast 475 547 37,000  Level Memphis Center
Sat 07:03:20 PM 33.5944 -88.0739 133° Southeast 475 547 37,000  Level Memphis Center
Sat 07:04:21 PM 33.5069 -87.9583 132° Southeast 473 544 37,000  Level Memphis Center
Sat 07:05:23 PM 33.4181 -87.8422 133° Southeast 473 544 37,000  Level Memphis Center
Sat 07:06:24 PM 33.3294 -87.7272 133° Southeast 473 544 37,000  Level Memphis Center
Sat 07:07:26 PM 33.2403 -87.6114 133° Southeast 473 544 37,000  Level Memphis Center
Sat 07:08:27 PM 33.1514 -87.4975 133° Southeast 473 544 37,000  Level Memphis Center
Sat 07:09:29 PM 33.0444 -87.3597 133° Southeast 473 544 37,000  Level Memphis Center
Sat 07:10:30 PM 32.9561 -87.2483 133° Southeast 469 540 37,000  Level Memphis Center
Sat 07:11:32 PM 32.8689 -87.1339 132° Southeast 468 539 37,000  Level Memphis Center
Sat 07:12:33 PM 32.7803 -87.0222 133° Southeast 468 539 37,000  Level Memphis Center
Sat 07:13:34 PM 32.6928 -86.9092 133° Southeast 467 537 37,000  Level Memphis Center
Sat 07:14:36 PM 32.6039 -86.8003 134° Southeast 467 537 37,000  Level Memphis Center
Sat 07:15:48 PM 32.4931 -86.6592 133° Southeast 461 531 37,000  Level Atlanta Center
Sat 07:16:48 PM 32.4058 -86.5483 133° Southeast 456 525 37,000  Level Atlanta Center
Sat 07:17:48 PM 32.3203 -86.4378 132° Southeast 456 525 37,000  Level Atlanta Center
Sat 07:18:48 PM 32.2242 -86.3319 137° Southeast 470 541 37,000  Level Atlanta Center
Sat 07:19:48 PM 32.1489 -86.2294 131° Southeast 464 534 37,000  Level Atlanta Center
Sat 07:22:16 PM 31.9044 -85.9442 135° Southeast 493 567 37,000  Level Jacksonville Center
Sat 07:23:16 PM 31.8150 -85.8361 134° Southeast 473 544 37,000  Level Jacksonville Center
Sat 07:24:16 PM 31.7236 -85.7306 135° Southeast 468 539 37,000  Level Jacksonville Center
Sat 07:25:16 PM 31.6339 -85.6256 135° Southeast 463 533 37,000  Level Jacksonville Center
Sat 07:26:16 PM 31.5444 -85.5156 134° Southeast 463 533 37,000  Level Jacksonville Center
Sat 07:27:16 PM 31.4525 -85.4108 136° Southeast 463 533 37,000  Level Jacksonville Center
Sat 07:28:16 PM 31.3522 -85.3131 140° Southeast 463 533 37,000  Level Jacksonville Center
Sat 07:29:16 PM 31.2494 -85.2231 143° Southeast 463 533 37,000  Level Jacksonville Center
Sat 07:30:16 PM 31.1444 -85.1353 144° Southeast 463 533 37,000  Level Jacksonville Center
Sat 07:31:16 PM 31.0417 -85.0433 143° Southeast 468 539 37,000  Level Jacksonville Center
Sat 07:32:16 PM 30.9367 -84.9536 144° Southeast 475 547 37,000  Level Jacksonville Center
Sat 07:33:16 PM 30.8317 -84.8619 143° Southeast 475 547 37,000 -50 Level Jacksonville Center
Sat 07:34:16 PM 30.7286 -84.7753 144° Southeast 470 541 36,900 -50 Descending Jacksonville Center
Sat 07:35:16 PM 30.6400 -84.6986 143° Southeast 470 541 36,900  Level Jacksonville Center
Sat 07:36:16 PM 30.5347 -84.6097 144° Southeast 464 534 36,900  Level Jacksonville Center
Sat 07:37:16 PM 30.4336 -84.5261 145° Southeast 464 534 36,900 50 Level Jacksonville Center
Sat 07:38:16 PM 30.3322 -84.4378 143° Southeast 464 534 37,000 50 Climbing Jacksonville Center
Sat 07:39:16 PM 30.2331 -84.3544 144° Southeast 459 528 37,000  Level Jacksonville Center
Sat 07:40:16 PM 30.1297 -84.2686 144° Southeast 454 522 37,000  Level Jacksonville Center
Sat 07:41:16 PM 30.0178 -84.1736 144° Southeast 454 522 37,000  Level Jacksonville Center
Sat 07:42:16 PM 29.9144 -84.0908 145° Southeast 454 522 37,000  Level Jacksonville Center
Sat 07:43:16 PM 29.8108 -84.0008 143° Southeast 454 522 37,000 -150 Level Jacksonville Center
Sat 07:44:16 PM 29.7069 -83.9161 145° Southeast 449 517 36,700 -600 Descending Jacksonville Center
Sat 07:45:16 PM 29.6053 -83.8336 145° Southeast 449 517 35,800 -1,100 Descending Jacksonville Center
Sat 07:46:16 PM 29.5036 -83.7469 143° Southeast 449 517 34,500 -2,250 Descending Jacksonville Center
Sat 07:47:16 PM 29.4000 -83.6603 144° Southeast 454 522 31,300 -2,850 Descending Jacksonville Center
Sat 07:48:16 PM 29.2939 -83.5736 145° Southeast 459 528 28,800 -2,400 Descending Jacksonville Center
Sat 07:49:16 PM 29.1900 -83.4897 145° Southeast 459 528 26,500 -1,900 Descending Jacksonville Center
Sat 07:50:16 PM 29.0839 -83.4225 151° Southeast 453 521 25,000 -900 Descending Jacksonville Center
Sat 07:51:16 PM 28.9797 -83.3603 152° Southeast 436 502 24,700 -1,850 Descending Jacksonville Center
Sat 07:52:16 PM 28.8714 -83.2886 150° Southeast 436 502 21,300 -3,000 Descending Jacksonville Center
Sat 07:53:16 PM 28.7672 -83.2242 152° Southeast 436 502 18,700 -2,350 Descending Jacksonville Center
Sat 07:54:16 PM 28.6650 -83.1575 150° Southeast 436 502 16,600 -2,089 Descending Jacksonville Center
Sat 07:55:31 PM 28.5500 -83.0833 150° Southeast 383 441 14,000 -1,467 Descending Tampa TRACON
Sat 07:56:31 PM 28.4500 -83.0333 156° South 350 403 13,300 -667 Descending Tampa TRACON
Sat 07:57:19 PM 28.4000 -82.9833 139° Southeast 308 354 12,800 -975 Descending Tampa TRACON
Sat 07:57:51 PM 28.3522 -82.9756 172° South 313 360 12,000 -1,419 Descending Miami Center
Sat 07:58:52 PM 28.2706 -82.9503 165° South 308 354 10,600 -1,463 Descending Miami Center
Sat 07:59:54 PM 28.1911 -82.9256 165° South 301 346 9,000 -1,561 Descending Miami Center
Sat 08:00:55 PM 28.1122 -82.9006 164° South 299 344 7,400 -1,574 Descending Miami Center
Sat 08:01:56 PM 28.0356 -82.8772 165° South 290 334 5,800 -1,648 Descending Miami Center
Sat 08:02:26 PM 27.9833 -82.8667 170° South 282 325 4,900 -1,667 Descending Tampa TRACON
Sat 08:03:26 PM 27.9167 -82.8333 156° South 275 316 3,300 -1,421 Descending Tampa TRACON
Sat 08:04:20 PM 27.8667 -82.8000 149° Southeast 243 280 2,200 -722 Descending Tampa TRACON
Sat 08:05:14 PM 27.8167 -82.7667 149° Southeast 213 245 2,000 -350 Descending Tampa TRACON
Sat 08:06:20 PM 27.8333 -82.7000 74° East 166 191 1,500 -571 Descending Tampa TRACON
Sat 08:07:20 PM 27.8500 -82.6833 41° Northeast 139 160 800 -509 Descending Tampa TRACON
Sat 08:09:05 PM 27.9256 -82.6911 355° North 152 175 100 -400 Descending Miami Center

Login

Don't have an account? Register now (free) for customized features, flight alerts, and more!